PST,Max TemperatureF,Mean TemperatureF,Min TemperatureF,Max Dew PointF,MeanDew PointF,Min DewpointF,Max Humidity, Mean Humidity, Min Humidity, Max Sea Level PressureIn, Mean Sea Level PressureIn, Min Sea Level PressureIn, Max VisibilityMiles, Mean VisibilityMiles, Min VisibilityMiles, Max Wind SpeedMPH, Mean Wind SpeedMPH, Max Gust SpeedMPH,PrecipitationIn, CloudCover, Events, WindDirDegrees
2011-12-1,57,47,36,39,33,30,82,70,43,30.66,30.59,30.47,10,10,1,11,5,12,0.00,0,,22
2011-12-2,54,42,30,39,32,25,82,69,54,30.51,30.48,30.44,10,10,8,21,7,27,0.00,1,,72
2011-12-3,48,38,28,34,29,21,82,70,54,30.54,30.51,30.48,10,7,0,13,4,21,0.00,1,,122
2011-12-4,46,40,34,34,29,27,76,67,58,30.55,30.51,30.47,10,10,10,12,6,,0.00,4,,99
2011-12-5,52,40,28,34,28,21,78,65,50,30.46,30.43,30.38,10,10,9,15,5,,0.00,0,,14
2011-12-6,48,38,27,34,27,19,78,69,57,30.48,30.43,30.37,10,10,6,7,3,,0.00,0,,141
2011-12-7,50,39,28,34,28,21,76,69,56,30.43,30.39,30.34,10,7,0,13,5,,0.00,2,,55
2011-12-8,48,39,30,34,29,23,75,69,56,30.36,30.29,30.23,10,10,10,15,6,20,0.00,0,,7
2011-12-9,52,40,28,39,30,19,79,71,54,30.26,30.22,30.18,10,8,1,10,5,,0.00,2,,150
2011-12-10,46,44,41,37,35,34,79,74,70,30.25,30.21,30.15,10,10,10,10,5,,0.00,8,,143
2011-12-11,48,39,30,36,32,25,82,68,53,30.14,30.11,30.10,10,10,5,24,7,28,0.00,3,,13
2011-12-12,48,38,28,28,25,19,78,62,42,30.12,30.08,30.00,10,10,2,13,6,18,0.00,0,,17
2011-12-13,50,39,27,36,26,18,75,67,52,30.14,30.03,29.95,10,10,5,10,6,,0.00,0,,154
2011-12-14,50,41,32,36,32,25,76,68,56,30.25,30.17,30.05,10,10,8,16,11,28,0.04,7,,156
2011-12-15,50,45,39,43,38,32,82,75,70,30.49,30.34,30.10,10,9,2,9,5,10,0.00,7,,120
2011-12-16,55,45,34,43,35,27,82,74,64,30.51,30.45,30.38,10,6,0,8,3,8,0.00,2,,61
2011-12-17,63,50,36,45,34,28,82,65,47,30.30,30.20,30.14,10,9,2,11,4,14,0.00,0,,136
2011-12-18,48,42,36,41,36,32,83,73,61,30.44,30.31,30.20,10,7,1,18,6,25,0.00,8,,37
2011-12-19,52,44,36,36,33,30,76,68,56,30.46,30.43,30.39,10,10,10,14,7,18,0.00,3,,19
2011-12-20,52,41,30,37,31,21,78,71,61,30.44,30.39,30.34,10,7,3,14,6,,0.00,3,,12
2011-12-21,50,40,30,34,29,23,79,67,46,30.46,30.42,30.37,10,10,8,13,7,16,0.00,0,,23
2011-12-22,54,44,34,34,25,19,70,53,35,30.48,30.37,30.32,10,10,10,16,9,21,0.00,0,,125
2011-12-23,57,46,34,37,30,25,75,60,36,30.64,30.58,30.48,10,9,2,13,7,,0.00,1,,164
2011-12-24,54,45,36,37,29,25,76,63,46,30.58,30.48,30.34,10,9,2,10,6,,0.00,0,,133
2011-12-25,52,45,37,43,37,28,80,71,56,30.47,30.35,30.25,10,8,0,20,9,31,0.05,5,,196
2011-12-26,46,41,36,39,33,28,82,75,65,30.45,30.36,30.31,10,7,0,15,7,,0.00,6,,142
2011-12-27,55,49,43,46,38,34,77,67,59,30.36,30.26,30.11,10,10,8,24,11,37,0.26,8,,155
2011-12-28,57,55,52,48,47,46,77,75,72,30.16,30.10,30.04,10,7,2,27,20,40,0.79,8,,199
2011-12-29,55,52,48,48,45,43,83,78,72,30.22,30.07,29.87,10,9,2,21,11,33,0.66,8,,174
2011-12-30,54,46,37,46,40,30,79,73,60,30.37,30.05,29.85,10,9,2,21,13,30,0.95,7,,243
2011-12-31,46,41,36,36,31,27,76,69,60,30.42,30.29,30.19,10,10,2,10,7,11,0.00,3,,133